Time;durP1;ratioP1;P1;durP2;ratioP2;P2;SDS_P1;SDS_P2;PMS_P1;PMS_P2;Temp;Humidity;BMP_temperature;BMP_pressure;BME280_temperature;BME280_humidity;BME280_pressure;Samples;Min_cycle;Max_cycle;Signal;HPM_P1;HPM_P2
2023/07/21 00:00:58;;;;;;;0.15;0.15;;;13.70;99.90;;;;;;4882259;29;20056;-85
2023/07/21 00:03:24;;;;;;;;;;;13.60;99.90;;;;;;4881214;29;20079;-85
2023/07/21 00:05:49;;;;;;;0.45;0.28;;;13.60;99.90;;;;;;4882427;29;20377;-85
2023/07/21 00:08:15;;;;;;;0.10;0.10;;;13.50;99.90;;;;;;4865537;29;20049;-85
2023/07/21 00:10:42;;;;;;;0.00;0.00;;;13.50;99.90;;;;;;4881920;29;20546;-85
2023/07/21 00:13:08;;;;;;;0.13;0.13;;;13.50;99.90;;;;;;4881870;29;20402;-85
2023/07/21 00:15:34;;;;;;;0.20;0.20;;;13.50;99.90;;;;;;4865178;29;20045;-85
2023/07/21 00:22:19;;;;;;;0.22;0.17;;;13.50;90.50;;;;;;4881854;29;20040;-85
2023/07/21 00:24:45;;;;;;;0.80;0.52;;;13.50;90.70;;;;;;4864965;29;20063;-85
2023/07/21 00:27:11;;;;;;;0.00;0.00;;;13.50;90.20;;;;;;4881571;29;20048;-85
2023/07/21 00:29:37;;;;;;;1.30;0.53;;;13.50;90.20;;;;;;4864760;29;20160;-85
2023/07/21 00:32:03;;;;;;;0.10;0.10;;;13.50;89.40;;;;;;4864794;29;20293;-85
2023/07/21 00:34:29;;;;;;;0.10;0.10;;;13.50;89.60;;;;;;4864969;29;20055;-85
2023/07/21 00:36:56;;;;;;;0.25;0.10;;;13.50;90.00;;;;;;4864416;29;20045;-85
2023/07/21 00:39:21;;;;;;;0.52;0.50;;;13.40;89.80;;;;;;4865097;29;20045;-85
2023/07/21 00:41:47;;;;;;;0.10;0.10;;;13.40;90.30;;;;;;4879902;29;20052;-85
2023/07/21 00:44:13;;;;;;;0.10;0.10;;;13.40;90.50;;;;;;4864777;29;20060;-85
2023/07/21 00:46:39;;;;;;;1.30;0.50;;;13.40;91.20;;;;;;4881092;29;20049;-85
2023/07/21 00:49:05;;;;;;;0.50;0.30;;;13.40;91.90;;;;;;4864663;29;20053;-85
2023/07/21 00:51:31;;;;;;;0.07;0.03;;;13.40;90.30;;;;;;4849315;29;20082;-88
2023/07/21 00:53:57;;;;;;;;;;;13.40;90.00;;;;;;4849606;29;20305;-85
2023/07/21 00:56:24;;;;;;;0.20;0.20;;;13.30;91.80;;;;;;4864430;29;19924;-85
2023/07/21 00:58:49;;;;;;;0.22;0.22;;;13.30;90.80;;;;;;4880801;29;20048;-85
2023/07/21 01:01:15;;;;;;;0.17;0.13;;;13.30;90.70;;;;;;4864444;29;20509;-85
2023/07/21 01:03:41;;;;;;;0.10;0.10;;;13.30;90.90;;;;;;4880764;29;20109;-85
2023/07/21 01:06:08;;;;;;;0.38;0.30;;;13.20;91.30;;;;;;4864361;29;20459;-85
2023/07/21 01:08:35;;;;;;;0.10;0.10;;;13.20;90.90;;;;;;4879879;29;20053;-85
2023/07/21 01:11:01;;;;;;;0.20;0.17;;;13.20;91.00;;;;;;4880731;29;20128;-85
2023/07/21 01:13:29;;;;;;;0.20;0.20;;;13.20;91.20;;;;;;4863625;29;20049;-85
2023/07/21 01:15:56;;;;;;;0.20;0.20;;;13.20;90.80;;;;;;4880620;29;20052;-85
2023/07/21 01:18:22;;;;;;;0.05;0.05;;;13.10;90.50;;;;;;4879270;29;20069;-85
2023/07/21 01:20:49;;;;;;;0.20;0.20;;;13.10;90.60;;;;;;4880606;29;20139;-85
2023/07/21 01:23:37;;;;;;;0.52;0.10;;;13.10;91.00;;;;;;4864267;29;20049;-85
2023/07/21 01:26:03;;;;;;;0.20;0.20;;;13.10;91.30;;;;;;4880590;29;20045;-85
2023/07/21 01:28:29;;;;;;;0.40;0.20;;;13.10;91.20;;;;;;4880525;29;20486;-85
2023/07/21 01:30:56;;;;;;;;;;;13.00;90.20;;;;;;4864284;29;20117;-85
2023/07/21 01:33:22;;;;;;;0.32;0.28;;;13.00;90.40;;;;;;4863909;29;19931;-85
2023/07/21 01:35:49;;;;;;;;;;;12.90;90.00;;;;;;4864028;29;20406;-85
2023/07/21 01:38:17;;;;;;;0.35;0.25;;;12.90;91.20;;;;;;4863852;29;20018;-85
2023/07/21 01:40:44;;;;;;;0.20;0.10;;;12.80;90.70;;;;;;4863874;29;20504;-85
2023/07/21 01:43:11;;;;;;;0.25;0.22;;;12.80;90.80;;;;;;4879000;29;20088;-85
2023/07/21 01:45:38;;;;;;;0.85;0.40;;;12.80;90.80;;;;;;4848207;29;20049;-85
2023/07/21 01:48:04;;;;;;;0.20;0.20;;;12.80;91.10;;;;;;4863631;29;20069;-85
2023/07/21 01:50:31;;;;;;;0.10;0.10;;;12.80;91.20;;;;;;4848555;29;20061;-85
2023/07/21 01:53:03;;;;;;;0.28;0.20;;;12.70;90.80;;;;;;4878768;29;20136;-85
2023/07/21 01:55:36;;;;;;;1.08;0.38;;;12.70;90.80;;;;;;4863283;29;20049;-85
2023/07/21 01:58:05;;;;;;;0.10;0.10;;;12.70;91.30;;;;;;4863386;29;20131;-85
2023/07/21 02:00:34;;;;;;;0.20;0.20;;;12.70;91.40;;;;;;4879862;29;20136;-85
2023/07/21 02:03:01;;;;;;;0.10;0.10;;;12.70;91.30;;;;;;4863340;29;20049;-84
2023/07/21 02:05:27;;;;;;;0.30;0.30;;;12.70;90.70;;;;;;4863193;29;20048;-86
2023/07/21 02:07:53;;;;;;;0.22;0.22;;;12.60;90.10;;;;;;4879856;29;20092;-85
2023/07/21 02:10:19;;;;;;;0.35;0.35;;;12.50;90.40;;;;;;4863228;29;20109;-85
2023/07/21 02:12:45;;;;;;;0.23;0.10;;;12.50;90.80;;;;;;4878631;29;20061;-86
2023/07/21 02:15:11;;;;;;;0.17;0.17;;;12.50;91.10;;;;;;4847665;29;20049;-85
2023/07/21 02:17:38;;;;;;;0.20;0.20;;;12.40;91.60;;;;;;4879713;29;20041;-85
2023/07/21 02:20:09;;;;;;;;;;;12.40;92.10;;;;;;4879503;29;20679;-85
2023/07/21 02:22:39;;;;;;;0.15;0.15;;;12.40;93.40;;;;;;4862989;29;19924;-85
2023/07/21 02:25:06;;;;;;;0.10;0.10;;;12.50;92.70;;;;;;4878650;29;20045;-85
2023/07/21 02:27:33;;;;;;;0.13;0.10;;;12.50;92.30;;;;;;4863092;29;20134;-85
2023/07/21 02:29:59;;;;;;;0.20;0.20;;;12.50;92.10;;;;;;4863170;29;20456;-85
2023/07/21 02:32:25;;;;;;;0.47;0.35;;;12.40;92.80;;;;;;4863095;29;20162;-85
2023/07/21 02:34:51;;;;;;;0.33;0.27;;;12.40;91.80;;;;;;4862976;29;20140;-85
2023/07/21 02:37:19;;;;;;;0.13;0.13;;;12.40;91.80;;;;;;4878484;29;20088;-85
2023/07/21 02:39:44;;;;;;;0.30;0.30;;;12.30;92.30;;;;;;4863184;29;20149;-85
2023/07/21 02:42:10;;;;;;;0.10;0.10;;;12.30;92.90;;;;;;4878473;29;20193;-85
2023/07/21 02:44:36;;;;;;;0.43;0.40;;;12.30;92.90;;;;;;4863029;29;20064;-85
2023/07/21 02:47:01;;;;;;;1.00;0.30;;;12.30;92.90;;;;;;4878300;29;20060;-85
2023/07/21 02:49:29;;;;;;;0.17;0.17;;;12.30;93.40;;;;;;4847796;29;20525;-85
2023/07/21 02:51:54;;;;;;;0.17;0.17;;;12.30;93.60;;;;;;4879478;29;20053;-84
2023/07/21 02:54:20;;;;;;;0.20;0.20;;;12.30;93.80;;;;;;4862953;29;20455;-85
2023/07/21 02:56:46;;;;;;;0.20;0.20;;;12.30;94.30;;;;;;4878291;29;20045;-85
2023/07/21 02:59:12;;;;;;;0.50;0.50;;;12.30;92.60;;;;;;4879268;29;20405;-85
2023/07/21 03:01:38;;;;;;;0.60;0.60;;;12.20;92.60;;;;;;4862755;29;20475;-85
2023/07/21 03:04:05;;;;;;;0.40;0.40;;;12.20;92.70;;;;;;4878986;29;20137;-85
2023/07/21 03:06:31;;;;;;;0.10;0.10;;;12.20;93.50;;;;;;4862229;29;20060;-85
2023/07/21 03:08:57;;;;;;;0.28;0.28;;;12.10;93.40;;;;;;4878975;29;20060;-85
2023/07/21 03:11:23;;;;;;;0.25;0.25;;;12.10;93.00;;;;;;4862718;29;20053;-84
2023/07/21 03:13:49;;;;;;;0.10;0.10;;;12.10;93.20;;;;;;4878822;29;20053;-85
2023/07/21 03:16:15;;;;;;;0.40;0.40;;;12.10;93.10;;;;;;4862563;29;20116;-85
2023/07/21 03:18:41;;;;;;;0.60;0.40;;;12.10;92.90;;;;;;4862253;29;20064;-85
2023/07/21 03:21:07;;;;;;;0.30;0.30;;;12.00;92.70;;;;;;4877632;29;20057;-85
2023/07/21 03:23:33;;;;;;;0.20;0.20;;;12.00;93.10;;;;;;4879026;29;20590;-85
2023/07/21 03:25:59;;;;;;;0.40;0.40;;;12.00;93.40;;;;;;4862409;29;20297;-85
2023/07/21 03:28:25;;;;;;;0.38;0.20;;;12.00;93.30;;;;;;4878050;29;20057;-85
2023/07/21 03:30:58;;;;;;;0.30;0.30;;;12.00;93.30;;;;;;4878506;29;20565;-85
2023/07/21 03:33:24;;;;;;;0.10;0.10;;;12.00;93.20;;;;;;4877836;29;20145;-85
2023/07/21 03:36:04;;;;;;;0.22;0.22;;;11.90;91.10;;;;;;4862051;29;20089;-85
2023/07/21 03:38:33;;;;;;;0.15;0.15;;;11.80;91.50;;;;;;4865152;29;20089;-85
2023/07/21 03:41:07;;;;;;;0.20;0.20;;;11.80;92.20;;;;;;4865159;29;20085;-85
2023/07/21 03:43:35;;;;;;;0.00;0.00;;;11.80;92.90;;;;;;4865317;29;20057;-85
2023/07/21 03:46:02;;;;;;;0.10;0.10;;;11.80;92.80;;;;;;4881454;29;20056;-85
2023/07/21 03:48:29;;;;;;;0.20;0.20;;;11.70;93.00;;;;;;4881583;29;20049;-87
2023/07/21 03:51:06;;;;;;;0.10;0.10;;;11.70;93.20;;;;;;4881652;29;20045;-91
2023/07/21 03:53:32;;;;;;;0.32;0.32;;;11.70;92.60;;;;;;4881740;29;20084;-87
2023/07/21 03:55:58;;;;;;;0.00;0.00;;;11.70;92.60;;;;;;4880267;29;20055;-85
2023/07/21 03:58:25;;;;;;;0.75;0.47;;;11.70;93.20;;;;;;4849692;29;20108;-85
2023/07/21 04:00:50;;;;;;;0.32;0.32;;;11.60;93.50;;;;;;4864915;29;20145;-85
2023/07/21 04:03:19;;;;;;;0.20;0.20;;;11.60;93.90;;;;;;4864597;29;20506;-85
2023/07/21 04:05:45;;;;;;;0.13;0.13;;;11.70;94.10;;;;;;4865011;29;20144;-85
2023/07/21 04:08:11;;;;;;;0.03;0.03;;;11.70;94.50;;;;;;4879860;29;20140;-85
2023/07/21 04:10:41;;;;;;;0.55;0.28;;;11.70;95.00;;;;;;4864521;29;20067;-86
2023/07/21 04:13:07;;;;;;;0.20;0.20;;;11.70;93.90;;;;;;4880781;29;20049;-86
2023/07/21 04:15:33;;;;;;;0.28;0.20;;;11.70;93.40;;;;;;4881286;29;20045;-85
2023/07/21 04:17:59;;;;;;;1.30;0.10;;;11.70;93.80;;;;;;4864528;29;20049;-92
2023/07/21 04:20:25;;;;;;;0.17;0.17;;;11.60;93.90;;;;;;4864339;29;20084;-85
2023/07/21 04:22:51;;;;;;;0.53;0.53;;;11.60;94.00;;;;;;4880999;29;20289;-85
2023/07/21 04:25:18;;;;;;;0.20;0.15;;;11.60;95.00;;;;;;4880590;29;20061;-85
2023/07/21 04:27:50;;;;;;;0.70;0.40;;;11.60;95.30;;;;;;4864229;29;20406;-85
2023/07/21 04:30:19;;;;;;;0.28;0.20;;;11.70;95.70;;;;;;4863995;29;20068;-85
2023/07/21 04:32:45;;;;;;;1.45;0.20;;;11.70;95.80;;;;;;4863617;29;20060;-86
2023/07/21 04:35:11;;;;;;;0.53;0.23;;;11.70;95.80;;;;;;4880325;29;20049;-85
2023/07/21 04:37:37;;;;;;;0.30;0.30;;;11.70;96.00;;;;;;4880529;29;20486;-86
2023/07/21 04:40:06;;;;;;;0.20;0.20;;;11.80;95.60;;;;;;4848437;29;20109;-90
2023/07/21 04:42:33;;;;;;;0.15;0.15;;;11.80;95.90;;;;;;4880269;29;20160;-86
2023/07/21 04:45:02;;;;;;;0.90;0.30;;;11.80;95.80;;;;;;4879287;29;20494;-86
2023/07/21 04:47:28;;;;;;;0.28;0.28;;;11.90;96.10;;;;;;4863941;29;20048;-86
2023/07/21 04:49:54;;;;;;;0.40;0.40;;;11.90;96.70;;;;;;4879244;29;20105;-85
2023/07/21 04:52:20;;;;;;;0.33;0.33;;;12.00;98.30;;;;;;4863422;29;20092;-86
2023/07/21 04:54:45;;;;;;;0.30;0.30;;;12.00;98.50;;;;;;4863643;29;20101;-86
2023/07/21 04:57:11;;;;;;;0.30;0.30;;;12.10;97.40;;;;;;4878941;29;20057;-86
2023/07/21 04:59:37;;;;;;;0.17;0.17;;;12.10;97.20;;;;;;4879128;29;20053;-86
2023/07/21 05:02:03;;;;;;;0.35;0.35;;;12.10;97.00;;;;;;4863319;29;20101;-85
2023/07/21 05:04:29;;;;;;;0.30;0.30;;;12.20;97.60;;;;;;4862807;29;20045;-90
2023/07/21 05:06:54;;;;;;;0.70;0.70;;;12.30;97.60;;;;;;4880263;29;20055;-87
2023/07/21 05:09:20;;;;;;;0.30;0.30;;;12.30;98.20;;;;;;4879782;29;20458;-86
2023/07/21 05:11:46;;;;;;;0.27;0.27;;;12.40;98.80;;;;;;4880011;29;20056;-86
2023/07/21 05:14:13;;;;;;;0.20;0.20;;;12.50;98.80;;;;;;4863086;29;20104;-85
2023/07/21 05:16:39;;;;;;;0.28;0.20;;;12.60;98.70;;;;;;4863359;29;20298;-90
2023/07/21 05:19:05;;;;;;;0.40;0.20;;;12.70;97.80;;;;;;4863078;29;20072;-86
2023/07/21 05:21:30;;;;;;;1.07;0.53;;;12.90;97.30;;;;;;4878425;29;20057;-86
2023/07/21 05:23:56;;;;;;;0.40;0.40;;;13.10;96.50;;;;;;4865034;29;20045;-86
2023/07/21 05:26:22;;;;;;;0.47;0.33;;;13.10;96.00;;;;;;4879319;29;20104;-85
2023/07/21 05:28:54;;;;;;;0.70;0.50;;;13.20;95.70;;;;;;4878815;29;20049;-87
2023/07/21 05:31:20;;;;;;;0.35;0.35;;;13.30;96.10;;;;;;4879503;29;20055;-85
2023/07/21 05:33:46;;;;;;;0.38;0.20;;;13.40;95.70;;;;;;4862932;29;20140;-85
2023/07/21 05:36:12;;;;;;;0.38;0.38;;;13.40;94.70;;;;;;4862877;29;20056;-85
2023/07/21 05:38:38;;;;;;;0.65;0.43;;;13.60;95.10;;;;;;4881185;29;20056;-86
2023/07/21 05:41:07;;;;;;;0.15;0.13;;;13.70;95.00;;;;;;4863078;29;20055;-86
2023/07/21 05:43:33;;;;;;;0.40;0.40;;;13.90;94.70;;;;;;4878376;29;20045;-85
2023/07/21 05:46:01;;;;;;;0.60;0.50;;;14.00;94.70;;;;;;4862716;29;20052;-85
2023/07/21 05:48:27;;;;;;;0.47;0.25;;;14.20;95.50;;;;;;4879410;29;20056;-86
2023/07/21 05:50:53;;;;;;;0.50;0.43;;;14.40;95.20;;;;;;4863162;29;20060;-85
2023/07/21 05:53:21;;;;;;;0.30;0.30;;;14.50;94.10;;;;;;4863158;29;20045;-85
2023/07/21 05:55:47;;;;;;;0.40;0.40;;;14.60;94.80;;;;;;4862916;29;20068;-85
2023/07/21 05:58:13;;;;;;;0.55;0.50;;;14.70;92.10;;;;;;4879366;29;20478;-86
2023/07/21 06:00:39;;;;;;;0.30;0.30;;;14.80;91.80;;;;;;4877979;29;20051;-85
2023/07/21 06:03:06;;;;;;;0.38;0.32;;;15.00;93.00;;;;;;4862723;29;20048;-85
2023/07/21 06:05:32;;;;;;;0.60;0.60;;;15.20;93.90;;;;;;4877930;29;20064;-85
2023/07/21 06:07:58;;;;;;;0.32;0.32;;;15.40;93.80;;;;;;4863081;29;20064;-90
2023/07/21 06:10:24;;;;;;;0.75;0.30;;;15.60;93.30;;;;;;4878279;29;20049;-85
2023/07/21 06:12:50;;;;;;;0.20;0.20;;;15.80;90.80;;;;;;4879598;29;20052;-85
2023/07/21 06:15:16;;;;;;;0.50;0.50;;;15.90;88.30;;;;;;4847373;29;20052;-87
2023/07/21 06:17:41;;;;;;;0.32;0.30;;;16.00;82.00;;;;;;4863251;29;20064;-85
2023/07/21 06:20:10;;;;;;;0.30;0.30;;;16.10;81.70;;;;;;4879221;29;20061;-85
2023/07/21 06:22:36;;;;;;;0.30;0.08;;;16.20;77.20;;;;;;4878443;29;20470;-85
2023/07/21 06:25:04;;;;;;;0.20;0.20;;;16.30;71.30;;;;;;4863045;29;20124;-85
2023/07/21 06:27:30;;;;;;;0.03;0.03;;;16.40;73.40;;;;;;4862716;29;20044;-85
2023/07/21 06:29:56;;;;;;;0.10;0.10;;;16.50;73.30;;;;;;4879496;29;20117;-86
2023/07/21 06:32:23;;;;;;;0.22;0.10;;;16.60;69.80;;;;;;4862699;29;20055;-86
2023/07/21 06:34:49;;;;;;;0.28;0.17;;;16.70;61.60;;;;;;4862613;29;20558;-87
2023/07/21 06:37:15;;;;;;;0.10;0.10;;;16.80;50.50;;;;;;4862650;29;20056;-87
2023/07/21 06:39:41;;;;;;;0.20;0.20;;;16.90;43.70;;;;;;4862850;29;20060;-86
2023/07/21 06:42:10;;;;;;;0.40;0.40;;;17.00;47.70;;;;;;4878406;29;20053;-87
2023/07/21 06:44:36;;;;;;;0.45;0.20;;;17.20;55.00;;;;;;4862596;29;20385;-86
2023/07/21 06:47:02;;;;;;;0.10;0.10;;;17.30;53.40;;;;;;4862593;29;20538;-87
2023/07/21 06:49:27;;;;;;;0.20;0.20;;;17.40;42.90;;;;;;4862713;29;20052;-87
2023/07/21 06:51:53;;;;;;;0.00;0.00;;;17.40;1.00;;;;;;4877755;29;20045;-85
2023/07/21 06:54:19;;;;;;;0.00;0.00;;;17.50;1.00;;;;;;4878694;29;20045;-85
2023/07/21 06:56:44;;;;;;;0.38;0.20;;;17.50;1.00;;;;;;4878993;29;20290;-85
2023/07/21 06:59:10;;;;;;;0.25;0.25;;;17.60;1.00;;;;;;4879011;29;20334;-85
2023/07/21 07:01:36;;;;;;;0.10;0.10;;;17.70;1.00;;;;;;4862351;29;20112;-83
2023/07/21 07:04:02;;;;;;;0.10;0.10;;;17.80;1.00;;;;;;4877029;29;20139;-81
2023/07/21 07:06:28;;;;;;;0.20;0.20;;;17.80;1.00;;;;;;4878797;29;20049;-85
2023/07/21 07:08:55;;;;;;;0.17;0.17;;;17.90;1.00;;;;;;4862814;29;20406;-85
2023/07/21 07:11:21;;;;;;;0.20;0.20;;;17.80;1.00;;;;;;4877975;29;20060;-87
2023/07/21 07:13:47;;;;;;;0.38;0.30;;;17.90;1.00;;;;;;4882818;29;20063;-86
2023/07/21 07:16:13;;;;;;;0.47;0.22;;;18.00;1.00;;;;;;4882824;29;20055;-86
2023/07/21 07:22:20;;;;;;;0.17;0.17;;;18.20;99.90;;;;;;4882696;29;20521;-85
2023/07/21 07:24:46;;;;;;;0.17;0.17;;;18.20;1.00;;;;;;4866046;29;20037;-86
2023/07/21 07:27:12;;;;;;;0.25;0.25;;;18.20;1.00;;;;;;4866139;29;20068;-85
2023/07/21 07:29:37;;;;;;;0.08;0.08;;;18.20;1.00;;;;;;4882828;29;20045;-86
2023/07/21 07:32:04;;;;;;;0.10;0.10;;;18.20;1.00;;;;;;4882839;29;20517;-85
2023/07/21 07:34:36;;;;;;;0.13;0.13;;;18.30;1.00;;;;;;4883234;29;20190;-86
2023/07/21 07:37:02;;;;;;;0.10;0.10;;;18.30;1.00;;;;;;4882727;29;20056;-85
2023/07/21 07:39:30;;;;;;;0.45;0.35;;;18.40;1.00;;;;;;4881271;29;20041;-88
2023/07/21 07:41:55;;;;;;;0.15;0.15;;;18.40;1.00;;;;;;4882073;29;20068;-87
2023/07/21 07:44:21;;;;;;;0.28;0.10;;;18.50;1.00;;;;;;4881084;29;20074;-86
2023/07/21 07:46:47;;;;;;;0.35;0.30;;;18.60;99.90;;;;;;4881783;29;20107;-86
2023/07/21 07:49:13;;;;;;;0.10;0.10;;;18.60;99.90;;;;;;4865637;29;20100;-86
2023/07/21 07:51:39;;;;;;;0.20;0.20;;;18.50;99.90;;;;;;4881809;29;20055;-86
2023/07/21 07:54:05;;;;;;;0.17;0.17;;;18.40;99.90;;;;;;4865491;29;20068;-86
2023/07/21 07:56:32;;;;;;;0.10;0.10;;;18.50;99.90;;;;;;4881055;29;20439;-86
2023/07/21 07:58:57;;;;;;;0.10;0.10;;;18.60;99.90;;;;;;4865781;29;20057;-86
2023/07/21 08:01:24;;;;;;;0.00;0.00;;;18.60;99.90;;;;;;4881141;29;20055;-86
2023/07/21 08:03:52;;;;;;;0.20;0.00;;;18.60;99.90;;;;;;4880570;29;20049;-86
2023/07/21 08:06:17;;;;;;;0.55;0.32;;;18.70;99.90;;;;;;4864915;29;20064;-83
2023/07/21 08:08:43;;;;;;;0.17;0.13;;;18.80;99.90;;;;;;4881475;29;20458;-85
2023/07/21 08:11:09;;;;;;;0.28;0.28;;;18.90;99.90;;;;;;4881235;29;20128;-85
2023/07/21 08:13:35;;;;;;;0.10;0.00;;;18.90;99.90;;;;;;4879608;29;20509;-84
2023/07/21 08:16:06;;;;;;;0.10;0.10;;;18.90;99.90;;;;;;4864368;29;20048;-85
2023/07/21 08:18:33;;;;;;;0.15;0.15;;;18.90;99.90;;;;;;4880360;29;20096;-85
2023/07/21 08:20:58;;;;;;;0.15;0.10;;;18.90;99.90;;;;;;4880931;29;20057;-84
2023/07/21 08:23:24;;;;;;;0.30;0.30;;;18.90;99.90;;;;;;4880675;29;20379;-85
2023/07/21 08:25:50;;;;;;;0.10;0.10;;;18.90;99.90;;;;;;4864151;29;20761;-85
2023/07/21 08:28:16;;;;;;;0.10;0.10;;;19.10;1.00;;;;;;4879642;29;20048;-85
2023/07/21 08:30:41;;;;;;;0.20;0.13;;;19.30;1.00;;;;;;4864176;29;20483;-85
2023/07/21 08:33:07;;;;;;;0.17;0.00;;;19.30;99.90;;;;;;4880423;29;20068;-85
2023/07/21 08:35:33;;;;;;;0.00;0.00;;;19.40;1.00;;;;;;4879704;29;20056;-85
2023/07/21 08:37:58;;;;;;;0.10;0.10;;;19.50;1.00;;;;;;4879419;29;20375;-85
2023/07/21 08:40:24;;;;;;;0.10;0.10;;;19.50;99.90;;;;;;4879426;29;20076;-85
2023/07/21 08:42:50;;;;;;;0.22;0.20;;;19.50;86.70;;;;;;4879177;29;20075;-84
2023/07/21 08:45:20;;;;;;;0.10;0.10;;;19.60;1.00;;;;;;4879107;29;20060;-84
2023/07/21 08:47:47;;;;;;;0.28;0.28;;;19.50;1.00;;;;;;4864170;29;20113;-84
2023/07/21 08:50:17;;;;;;;0.10;0.10;;;19.50;2.30;;;;;;4880603;29;20060;-84
2023/07/21 08:52:43;;;;;;;0.35;0.35;;;19.60;99.90;;;;;;4880348;29;20053;-87
2023/07/21 08:55:09;;;;;;;0.10;0.10;;;19.70;99.90;;;;;;4864004;29;20076;-84
2023/07/21 08:57:35;;;;;;;0.52;0.52;;;19.70;1.00;;;;;;4880715;29;20095;-92
2023/07/21 09:00:03;;;;;;;0.00;0.00;;;19.70;1.00;;;;;;4879236;29;20061;-85
2023/07/21 09:06:11;;;;;;;0.10;0.10;;;19.80;1.00;;;;;;4863077;29;20447;-82
2023/07/21 09:08:37;;;;;;;0.20;0.20;;;19.80;99.90;;;;;;4879282;29;20049;-91
2023/07/21 09:11:04;;;;;;;0.10;0.00;;;19.80;99.90;;;;;;4863852;29;20049;-86
2023/07/21 09:13:31;;;;;;;0.20;0.20;;;19.90;99.90;;;;;;4880144;29;20429;-86
2023/07/21 09:15:58;;;;;;;0.20;0.20;;;19.90;99.90;;;;;;4879698;29;20041;-86
2023/07/21 09:18:28;;;;;;;0.13;0.10;;;19.90;97.10;;;;;;4879855;29;20455;-87
2023/07/21 09:20:55;;;;;;;0.20;0.20;;;19.80;99.90;;;;;;4863377;29;20139;-86
2023/07/21 09:23:22;;;;;;;0.20;0.10;;;19.70;99.90;;;;;;4851823;29;20056;-86
2023/07/21 09:25:51;;;;;;;;;;;19.70;99.90;;;;;;4863984;29;20101;-83
2023/07/21 09:28:17;;;;;;;0.32;0.20;;;19.70;99.90;;;;;;4863685;29;20023;-85
2023/07/21 09:30:51;;;;;;;0.08;0.08;;;19.70;1.00;;;;;;4880078;29;20131;-88
2023/07/21 09:33:23;;;;;;;0.08;0.08;;;19.60;1.00;;;;;;4863372;29;20052;-88
2023/07/21 09:35:49;;;;;;;0.00;0.00;;;19.60;99.90;;;;;;4862257;29;20129;-87
2023/07/21 09:38:15;;;;;;;;;;;19.70;1.00;;;;;;4848135;29;20095;-88
2023/07/21 09:40:42;;;;;;;0.00;0.00;;;19.80;99.90;;;;;;4864344;29;19928;-89
2023/07/21 09:43:09;;;;;;;0.25;0.25;;;20.00;99.90;;;;;;4879844;29;20057;-87
2023/07/21 09:45:38;;;;;;;0.13;0.13;;;20.10;1.00;;;;;;4863089;29;20072;-91
2023/07/21 09:48:08;;;;;;;0.20;0.20;;;20.20;99.90;;;;;;4846938;29;20574;-89
2023/07/21 09:50:35;;;;;;;0.25;0.25;;;20.20;99.90;;;;;;4847080;29;20565;-88
2023/07/21 09:53:03;;;;;;;0.10;0.10;;;20.30;94.70;;;;;;4862324;29;20064;-88
2023/07/21 09:55:37;;;;;;;0.47;0.40;;;20.40;99.90;;;;;;4862933;29;20045;-89
2023/07/21 09:58:10;;;;;;;0.40;0.40;;;20.40;1.00;;;;;;4862752;29;20049;-89
2023/07/21 10:00:39;;;;;;;0.10;0.00;;;20.60;1.00;;;;;;4863400;29;20053;-89
2023/07/21 10:03:07;;;;;;;0.10;0.10;;;20.60;99.90;;;;;;4862735;29;20063;-89
2023/07/21 10:05:38;;;;;;;0.08;0.08;;;20.60;1.00;;;;;;4847150;29;20115;-89
2023/07/21 10:08:06;;;;;;;0.00;0.00;;;20.40;99.90;;;;;;4847001;29;20373;-89
2023/07/21 10:10:32;;;;;;;0.17;0.17;;;20.30;1.00;;;;;;4847038;29;20494;-89
2023/07/21 10:13:04;;;;;;;0.20;0.20;;;20.10;1.00;;;;;;4862673;29;20049;-89
2023/07/21 10:15:36;;;;;;;0.00;0.00;;;20.00;99.90;;;;;;4847494;29;20071;-88
2023/07/21 10:18:09;;;;;;;0.10;0.10;;;19.80;99.90;;;;;;4847019;29;20051;-88
2023/07/21 10:20:57;;;;;;;0.25;0.13;;;19.70;99.90;;;;;;4878603;29;20053;-89
2023/07/21 10:23:29;;;;;;;0.13;0.13;;;19.70;99.90;;;;;;4863161;29;20049;-88
2023/07/21 10:26:05;;;;;;;0.10;0.10;;;19.30;99.90;;;;;;4847007;29;20491;-88
2023/07/21 10:28:42;;;;;;;0.10;0.10;;;19.60;99.90;;;;;;4847554;29;20088;-89
2023/07/21 10:31:26;;;;;;;0.90;0.10;;;19.50;1.00;;;;;;4847107;29;20116;-88
2023/07/21 10:34:18;;;;;;;0.10;0.05;;;19.50;1.00;;;;;;4862434;29;20526;-89
2023/07/21 10:37:02;;;;;;;0.20;0.20;;;19.50;12.10;;;;;;4847115;29;20045;-88
2023/07/21 10:39:42;;;;;;;0.05;0.05;;;19.50;99.90;;;;;;4847479;29;20053;-88
2023/07/21 10:42:11;;;;;;;0.00;0.00;;;19.50;99.90;;;;;;4847577;29;20060;-88
2023/07/21 10:44:49;;;;;;;0.30;0.22;;;19.50;1.00;;;;;;4847272;29;20045;-88
2023/07/21 10:47:24;;;;;;;0.10;0.10;;;19.60;99.90;;;;;;4850283;29;20057;-89
2023/07/21 10:49:53;;;;;;;0.20;0.20;;;19.80;99.90;;;;;;4866300;29;20398;-92
2023/07/21 10:52:23;;;;;;;0.10;0.10;;;19.90;99.90;;;;;;4850945;29;20057;-88
2023/07/21 10:54:59;;;;;;;0.00;0.00;;;20.00;99.90;;;;;;4850871;29;20084;-89
2023/07/21 10:57:40;;;;;;;0.10;0.10;;;20.10;99.90;;;;;;4865992;29;20502;-89
2023/07/21 11:00:06;;;;;;;0.10;0.10;;;20.10;1.00;;;;;;4865754;29;20140;-89
2023/07/21 11:02:37;;;;;;;;;;;20.10;99.90;;;;;;4850642;29;20470;-89
2023/07/21 11:05:06;;;;;;;0.10;0.10;;;20.10;99.90;;;;;;4865269;29;19924;-89
2023/07/21 11:07:37;;;;;;;0.17;0.17;;;20.10;99.90;;;;;;4865933;29;20495;-89
2023/07/21 11:10:03;;;;;;;0.20;0.20;;;20.10;99.90;;;;;;4864808;29;20065;-88
2023/07/21 11:12:29;;;;;;;0.43;0.20;;;20.20;99.90;;;;;;4850762;29;20159;-88
2023/07/21 11:14:55;;;;;;;0.25;0.25;;;20.10;91.20;;;;;;4865066;29;20505;-88
2023/07/21 11:17:21;;;;;;;0.47;0.30;;;20.20;1.00;;;;;;4866131;29;20143;-89
2023/07/21 11:19:47;;;;;;;0.10;0.10;;;20.10;99.90;;;;;;4865586;29;20140;-89
2023/07/21 11:22:13;;;;;;;0.35;0.13;;;20.10;57.20;;;;;;4881637;29;20061;-88
2023/07/21 11:24:48;;;;;;;;;;;;;;;;;;;;;
2023/07/21 11:27:15;;;;;;;0.27;0.20;;;20.10;99.90;;;;;;4864769;29;20057;-86
2023/07/21 11:29:44;;;;;;;0.40;0.40;;;20.00;99.90;;;;;;4881922;29;20321;-88
2023/07/21 11:32:23;;;;;;;0.15;0.13;;;19.90;1.00;;;;;;4850086;29;20052;-87
2023/07/21 11:34:58;;;;;;;0.45;0.20;;;19.90;56.70;;;;;;4865336;29;20051;-89
2023/07/21 11:37:27;;;;;;;0.30;0.30;;;19.70;45.90;;;;;;4880464;29;20080;-90
2023/07/21 11:39:56;;;;;;;0.00;0.00;;;19.70;99.90;;;;;;4865894;29;20060;-86
2023/07/21 11:42:23;;;;;;;0.45;0.22;;;19.70;1.00;;;;;;4882953;29;20045;-86
2023/07/21 11:44:49;;;;;;;0.20;0.15;;;20.00;1.00;;;;;;4850770;29;20112;-86
2023/07/21 11:47:16;;;;;;;0.70;0.50;;;20.20;99.90;;;;;;4881205;29;20435;-88
2023/07/21 11:49:46;;;;;;;0.10;0.10;;;20.30;99.90;;;;;;4865587;29;20053;-89
2023/07/21 11:52:24;;;;;;;0.10;0.10;;;20.50;99.90;;;;;;4849484;29;20049;-89
2023/07/21 11:54:51;;;;;;;0.10;0.10;;;20.50;99.90;;;;;;4865084;29;20044;-90
2023/07/21 11:57:18;;;;;;;0.30;0.30;;;20.40;1.00;;;;;;4864260;29;20451;-88
2023/07/21 11:59:44;;;;;;;0.10;0.10;;;20.40;1.00;;;;;;4865044;29;20055;-87
2023/07/21 12:02:14;;;;;;;0.10;0.10;;;20.60;29.70;;;;;;4864819;29;20053;-87
2023/07/21 12:04:40;;;;;;;0.13;0.13;;;20.80;1.00;;;;;;4865311;29;20086;-87
2023/07/21 12:07:08;;;;;;;0.10;0.10;;;21.00;1.00;;;;;;4849242;29;20049;-87
2023/07/21 12:09:34;;;;;;;0.28;0.28;;;21.20;99.90;;;;;;4865341;29;20045;-87
2023/07/21 12:12:00;;;;;;;0.13;0.10;;;21.40;99.90;;;;;;4865267;29;20045;-88
2023/07/21 12:14:26;;;;;;;0.20;0.20;;;21.60;99.90;;;;;;4864369;29;20049;-87
2023/07/21 12:16:55;;;;;;;0.25;0.25;;;21.70;99.90;;;;;;4849711;29;20096;-87
2023/07/21 12:19:22;;;;;;;0.00;0.00;;;21.80;99.90;;;;;;4879569;29;20389;-87
2023/07/21 12:21:48;;;;;;;0.10;0.10;;;21.90;99.90;;;;;;4880395;29;20056;-87
2023/07/21 12:24:13;;;;;;;0.10;0.10;;;21.80;92.10;;;;;;4864515;29;20083;-87
2023/07/21 12:26:39;;;;;;;0.15;0.15;;;21.70;93.90;;;;;;4865167;29;20044;-87
2023/07/21 12:29:05;;;;;;;0.13;0.13;;;21.50;51.10;;;;;;4864921;29;20057;-87
2023/07/21 12:31:31;;;;;;;0.10;0.10;;;21.40;55.90;;;;;;4865083;29;20466;-87
2023/07/21 12:33:56;;;;;;;0.10;0.10;;;21.30;10.00;;;;;;4864866;29;20088;-87
2023/07/21 12:36:22;;;;;;;0.00;0.00;;;21.20;1.00;;;;;;4863909;29;20045;-87
2023/07/21 12:38:48;;;;;;;0.15;0.15;;;21.10;1.00;;;;;;4849030;29;20091;-87
2023/07/21 12:41:14;;;;;;;0.10;0.10;;;20.90;1.00;;;;;;4864480;29;20117;-87
2023/07/21 12:43:40;;;;;;;0.10;0.10;;;20.90;1.00;;;;;;4864340;29;20557;-87
2023/07/21 12:46:06;;;;;;;0.17;0.17;;;20.80;1.00;;;;;;4864182;29;20045;-88
2023/07/21 12:48:33;;;;;;;0.47;0.30;;;20.70;1.00;;;;;;4864411;29;20146;-87
2023/07/21 12:51:00;;;;;;;0.00;0.00;;;20.60;1.00;;;;;;4879808;29;20092;-87
2023/07/21 12:53:27;;;;;;;0.10;0.10;;;20.60;1.00;;;;;;4864133;29;20060;-86
2023/07/21 12:55:53;;;;;;;0.10;0.10;;;20.50;1.00;;;;;;4848754;29;20052;-87
2023/07/21 12:58:19;;;;;;;0.90;0.60;;;20.50;1.00;;;;;;4848673;29;20116;-87
2023/07/21 13:00:46;;;;;;;0.60;0.10;;;20.40;1.00;;;;;;4864314;29;20139;-86
2023/07/21 13:03:12;;;;;;;0.05;0.05;;;20.30;1.00;;;;;;4864097;29;20061;-87
2023/07/21 13:05:38;;;;;;;0.30;0.30;;;20.20;1.00;;;;;;4864171;29;20052;-87